Airfield :
LOGIN :

Register | Disclaimer

   EN    FR    IT 

 










Legend :    VFR   Marginal VFR   IFR   Intensive IFR   Very Intensive IFR
Visi :
Ceiling :
>= 8 km
>= 3000ft
5 to 8 km
1000 to 3000 ft
1500m to 5 km
500 to 1000 ft
800 to 1500m
200 to 500 ft
< 800m
< 200 ft
Symbols :   Thunderstorms  Fog  Heavy snow  Heavy precipitations  Wind > 20 kt
SIGMETs :     Misc.  Thunderstorms  Icing  Turbulence  Mountain Waves  Volcanic Ashes






- Airport Elevation : 1000 ft
- IATA code : PEV


LHPP - Pécs Pogany

CURRENT METAR :
  • 032315Z AUTO 00000KT CAVOK 21/16 Q1017

EXPIRED METARs :
  • 032245Z AUTO 33002KT CAVOK 21/15 Q1017
  • 032215Z AUTO 33005KT CAVOK 22/15 Q1017
  • 032145Z AUTO 33005KT CAVOK 23/15 Q1017
  • 032115Z AUTO 32005KT CAVOK 24/15 Q1017
  • 032045Z AUTO 32005KT CAVOK 25/15 Q1017

TAF TAF LHPP
Valid from the 03 at 15:00 until the 04 at 00:00 UTC


031415Z 0315/0324 VRB04KT CAVOK



MET'MAP, your aeronautical weather chart ! - Copyright ORBIFLY December 2007 - Disclaimer

ORBIFLY MET'MAP TEAM :

Programming & Development : Alexandra Zaïnal
Original concept : Baudouin d'Aumeries
Technical & hardware support : Manuel Goepfert
Assistance : Marc-Olivier Méhu




SOURCES & CREDITS :

   NOAA